CheckWX is a tool to help pilots better visualize weather data.  It is not intended as a substitute for an official pre-flight weather briefing.

13:02:47 UTC

EBBR TAF
Brussels Airport
Brussels, Belgium
TAF EBBR 171110Z 1712/1818 19005KT CAVOK

Jun-17@
12:00 UTC

Jun-17 @ 12:00 UTC

Jun-18@
18:00 UTC

Jun-18 @ 18:00 UTC

TAF EBBR 171110Z 1712/1818 19005KT CAVOK
Wind
  • 190° at 5 KTS
Conditions
No significant weather
Cloud Levels
  • No significant clouds